Portada
METAR-TAF:

METAR-TAF

Aeropuertos :

Aeropuerto Cherif Al Idrissi

Alhucemas, Marruecos

latitud: 35-11N, longitud: 003-51W, altitud: 27 m

Observación

El informe se hizo hace 56 minutos, a las 21:00 UTC
Viento 2 kt del sur-sureste
Temperatura 14°C
Humedad 67%
Presión 1019 hPa
Visibilidad 10 km o más
sin nubes por debajo de 1500 m y sin presencia de cumulonimbus.

METAR: GMTA 162100Z 16002KT CAVOK 14/08 Q1019 NOSIG

Hora: 22:56 (21:56 UTC)

Pronóstico

El informe se hizo hace 4 horas y 56 minutos, a las 17:00 UTC
Pronóstico válido del 16 a las 18 UTC al 17 a las 24 UTC
Viento 5 kt del norte-noreste
Visibilidad 10 km o más
sin nubes por debajo de 1500 m y sin presencia de cumulonimbus.

TAF: GMTA 161700Z 1618/1724 02005KT CAVOK

Observaciones y pronósticos meteorológicos de más de 4000 aeropuertos (mensajes METAR y TAF).

Los puntos amarillos y rojos representan las estaciones disponibles.

Ponga el ratón en el punto deseado para ver el nombre de la estación.

Haga clic para ver las observaciones y los pronósticos meteorológicos.

Para cambiar el mapa : haga clic en los botones verdes con una cruz de color negro para hacer un zoom, en el botón verde con un guión para alejar o en las flechas verdes para mapas adyacentes.


METAR-TAF: